Time,TemperatureF,DewpointF,PressureIn,WindDirection,WindDirectionDegrees,WindSpeedMPH,WindSpeedGustMPH,Humidity,HourlyPrecipIn,Conditions,Clouds,dailyrainin,SoftwareType,DateUTC
2013-04-04 00:00:00,55.8,47.7,30.03,NW,311,0.0,1.0,74,0.00,,---,0.00,VWS V14.01,2013-04-04 07:00:00,
2013-04-04 00:05:00,55.8,47.7,29.99,NW,311,0.0,3.0,74,0.00,,---,0.00,VWS V14.01,2013-04-04 07:05:00,
2013-04-04 00:10:00,55.8,47.7,30.03,NW,311,0.0,3.0,74,0.00,,---,0.00,VWS V14.01,2013-04-04 07:10:00,
2013-04-04 00:15:00,55.8,47.7,30.01,NW,311,0.0,3.0,74,0.00,,---,0.00,VWS V14.01,2013-04-04 07:15:00,
2013-04-04 00:20:00,55.8,47.7,30.04,NW,311,1.0,3.0,74,0.00,,---,0.00,VWS V14.01,2013-04-04 07:20:00,
2013-04-04 00:25:00,55.7,47.9,30.00,NW,311,1.0,3.0,75,0.00,,---,0.00,VWS V14.01,2013-04-04 07:25:00,
2013-04-04 00:30:00,55.5,47.7,30.02,NW,311,1.0,2.0,75,0.00,,---,0.00,VWS V14.01,2013-04-04 07:30:00,
2013-04-04 00:35:00,55.4,47.6,29.99,NW,311,2.0,4.0,75,0.00,,---,0.00,VWS V14.01,2013-04-04 07:35:00,
2013-04-04 00:41:00,55.4,48.0,30.03,NW,311,1.0,4.0,76,0.00,,---,0.00,VWS V14.01,2013-04-04 07:41:00,
2013-04-04 00:46:00,55.1,47.7,30.00,NW,312,1.0,4.0,76,0.00,,---,0.00,VWS V14.01,2013-04-04 07:46:00,
2013-04-04 00:51:00,54.9,47.5,30.02,NW,313,1.0,4.0,76,0.00,,---,0.00,VWS V14.01,2013-04-04 07:51:00,
2013-04-04 00:56:00,54.6,47.5,30.03,NW,313,1.0,4.0,77,0.00,,---,0.00,VWS V14.01,2013-04-04 07:56:00,
2013-04-04 01:01:00,54.6,47.5,29.99,NW,312,1.0,3.0,77,0.00,,---,0.00,VWS V14.01,2013-04-04 08:01:00,
2013-04-04 01:06:00,54.5,47.5,30.01,NW,312,1.0,3.0,77,0.00,,---,0.00,VWS V14.01,2013-04-04 08:06:00,
2013-04-04 01:11:00,54.5,47.8,29.99,NW,312,2.0,3.0,78,0.00,,---,0.00,VWS V14.01,2013-04-04 08:11:00,
2013-04-04 01:16:00,54.3,47.6,30.02,NW,312,2.0,3.0,78,0.00,,---,0.00,VWS V14.01,2013-04-04 08:16:00,
2013-04-04 01:22:00,54.2,47.8,30.01,NW,312,1.0,3.0,79,0.00,,---,0.00,VWS V14.01,2013-04-04 08:22:00,
2013-04-04 01:27:00,54.1,47.7,30.04,NW,312,1.0,3.0,79,0.00,,---,0.00,VWS V14.01,2013-04-04 08:27:00,
2013-04-04 01:32:00,54.1,47.7,30.01,NW,312,1.0,2.0,79,0.00,,---,0.00,VWS V14.01,2013-04-04 08:32:00,
2013-04-04 01:37:00,53.9,47.9,30.05,NW,312,1.0,4.0,80,0.00,,---,0.00,VWS V14.01,2013-04-04 08:37:00,
2013-04-04 01:42:00,53.9,47.9,30.03,NW,313,0.0,4.0,80,0.00,,---,0.00,VWS V14.01,2013-04-04 08:42:00,
2013-04-04 01:47:00,54.0,48.0,30.01,NW,312,0.0,4.0,80,0.00,,---,0.00,VWS V14.01,2013-04-04 08:47:00,
2013-04-04 01:52:00,53.8,47.8,30.00,NW,313,1.0,4.0,80,0.00,,---,0.00,VWS V14.01,2013-04-04 08:52:00,
2013-04-04 01:57:00,53.8,47.8,30.04,NW,312,0.0,4.0,80,0.00,,---,0.00,VWS V14.01,2013-04-04 08:57:00,
2013-04-04 02:02:00,53.7,48.0,29.99,NW,312,1.0,2.0,81,0.00,,---,0.00,VWS V14.01,2013-04-04 09:02:00,
2013-04-04 02:07:00,53.8,48.1,30.01,NW,312,0.0,3.0,81,0.00,,---,0.00,VWS V14.01,2013-04-04 09:07:00,
2013-04-04 02:12:00,53.7,48.3,30.01,NW,313,0.0,3.0,82,0.00,,---,0.00,VWS V14.01,2013-04-04 09:12:00,
2013-04-04 02:17:00,53.8,48.4,30.00,NW,313,3.0,5.0,82,0.00,,---,0.00,VWS V14.01,2013-04-04 09:17:00,
2013-04-04 02:23:00,53.7,48.0,30.02,North,1,2.0,5.0,81,0.00,,---,0.00,VWS V14.01,2013-04-04 09:23:00,
2013-04-04 02:28:00,53.7,48.3,30.00,North,1,1.0,5.0,82,0.00,,---,0.00,VWS V14.01,2013-04-04 09:28:00,
2013-04-04 02:33:00,53.7,48.3,30.00,North,9,1.0,5.0,82,0.00,,---,0.00,VWS V14.01,2013-04-04 09:33:00,
2013-04-04 02:38:00,53.8,48.1,29.99,North,9,0.0,5.0,81,0.00,,---,0.00,VWS V14.01,2013-04-04 09:38:00,
2013-04-04 02:43:00,53.8,48.4,30.00,North,9,0.0,5.0,82,0.00,,---,0.00,VWS V14.01,2013-04-04 09:43:00,
2013-04-04 02:48:00,53.8,48.4,30.00,North,9,0.0,5.0,82,0.00,,---,0.00,VWS V14.01,2013-04-04 09:48:00,
2013-04-04 02:53:00,53.7,48.3,29.99,North,9,1.0,5.0,82,0.00,,---,0.00,VWS V14.01,2013-04-04 09:53:00,
2013-04-04 02:58:00,53.9,48.5,29.99,North,9,1.0,5.0,82,0.00,,---,0.00,VWS V14.01,2013-04-04 09:58:00,
2013-04-04 03:03:00,53.9,48.5,30.01,North,9,2.0,3.0,82,0.00,,---,0.00,VWS V14.01,2013-04-04 10:03:00,
2013-04-04 03:08:00,54.0,48.6,29.99,East,80,1.0,6.0,82,0.00,,---,0.00,VWS V14.01,2013-04-04 10:08:00,
2013-04-04 03:13:00,54.1,49.1,29.99,East,81,2.0,6.0,83,0.01,,---,0.01,VWS V14.01,2013-04-04 10:13:00,
2013-04-04 03:18:00,54.2,49.2,30.00,SSE,165,1.0,6.0,83,0.01,,---,0.01,VWS V14.01,2013-04-04 10:18:00,
2013-04-04 03:23:00,54.3,49.3,30.00,SSE,165,1.0,6.0,83,0.01,,---,0.01,VWS V14.01,2013-04-04 10:23:00,
2013-04-04 03:28:00,54.4,49.7,30.00,SSE,165,0.0,6.0,84,0.02,,---,0.02,VWS V14.01,2013-04-04 10:28:00,
2013-04-04 03:34:00,54.4,50.0,30.00,SSE,165,0.0,1.0,85,0.03,,---,0.03,VWS V14.01,2013-04-04 10:34:00,
2013-04-04 03:39:00,54.3,49.9,29.98,SSE,165,1.0,3.0,85,0.05,,---,0.05,VWS V14.01,2013-04-04 10:39:00,
2013-04-04 03:44:00,54.4,50.3,29.97,SSE,166,3.0,4.0,86,0.06,,---,0.06,VWS V14.01,2013-04-04 10:44:00,
2013-04-04 03:49:00,54.0,49.9,29.99,SSE,166,0.0,4.0,86,0.07,,---,0.07,VWS V14.01,2013-04-04 10:49:00,
2013-04-04 03:54:00,53.9,50.1,29.97,SSE,166,0.0,4.0,87,0.07,,---,0.07,VWS V14.01,2013-04-04 10:54:00,
2013-04-04 03:59:00,53.9,50.4,29.99,SSE,165,0.0,4.0,88,0.07,,---,0.07,VWS V14.01,2013-04-04 10:59:00,
2013-04-04 04:04:00,53.7,50.2,30.01,SSE,165,0.0,3.0,88,0.08,,---,0.08,VWS V14.01,2013-04-04 11:04:00,
2013-04-04 04:09:00,53.6,50.1,30.00,SSE,166,3.0,4.0,88,0.08,,---,0.08,VWS V14.01,2013-04-04 11:09:00,
2013-04-04 04:14:00,53.1,49.7,30.01,SSE,166,0.0,4.0,88,0.09,,---,0.09,VWS V14.01,2013-04-04 11:14:00,
2013-04-04 04:19:00,53.0,49.2,30.01,SSE,166,0.0,4.0,87,0.09,,---,0.09,VWS V14.01,2013-04-04 11:19:00,
2013-04-04 04:24:00,52.9,49.1,30.03,SSE,166,2.0,4.0,87,0.09,,---,0.09,VWS V14.01,2013-04-04 11:24:00,
2013-04-04 04:29:00,52.7,49.2,30.04,SSE,166,0.0,4.0,88,0.09,,---,0.09,VWS V14.01,2013-04-04 11:29:00,
2013-04-04 04:35:00,52.6,49.2,30.03,SSE,166,1.0,2.0,88,0.07,,---,0.09,VWS V14.01,2013-04-04 11:35:00,
2013-04-04 04:40:00,52.3,48.9,30.03,SSE,166,2.0,4.0,88,0.08,,---,0.10,VWS V14.01,2013-04-04 11:40:00,
2013-04-04 04:45:00,52.3,49.2,30.04,SSE,166,0.0,4.0,89,0.08,,---,0.10,VWS V14.01,2013-04-04 11:45:00,
2013-04-04 04:50:00,52.1,49.0,30.02,South,186,3.0,5.0,89,0.09,,---,0.11,VWS V14.01,2013-04-04 11:50:00,
2013-04-04 04:55:00,52.0,49.2,30.02,South,187,1.0,5.0,90,0.12,,---,0.14,VWS V14.01,2013-04-04 11:55:00,
2013-04-04 05:00:00,52.0,49.2,30.02,SSW,199,1.0,1.0,90,0.08,,---,0.15,VWS V14.01,2013-04-04 12:00:00,
2013-04-04 05:05:00,52.0,49.2,30.04,SSW,199,0.0,3.0,90,0.09,,---,0.16,VWS V14.01,2013-04-04 12:05:00,
2013-04-04 05:10:00,52.1,49.6,30.03,SSW,199,0.0,3.0,91,0.10,,---,0.17,VWS V14.01,2013-04-04 12:10:00,
2013-04-04 05:15:00,52.2,49.7,30.02,SSW,199,3.0,5.0,91,0.10,,---,0.17,VWS V14.01,2013-04-04 12:15:00,
2013-04-04 05:20:00,52.3,49.8,30.00,SSW,199,0.0,5.0,91,0.11,,---,0.18,VWS V14.01,2013-04-04 12:20:00,
2013-04-04 05:25:00,52.1,49.6,30.00,ESE,116,0.0,6.0,91,0.12,,---,0.19,VWS V14.01,2013-04-04 12:25:00,
2013-04-04 05:31:00,52.1,49.6,30.01,ESE,116,1.0,1.0,91,0.10,,---,0.19,VWS V14.01,2013-04-04 12:31:00,
2013-04-04 05:36:00,52.0,49.5,30.00,ESE,115,2.0,4.0,91,0.10,,---,0.19,VWS V14.01,2013-04-04 12:36:00,
2013-04-04 05:41:00,52.0,49.5,30.00,ESE,116,0.0,4.0,91,0.11,,---,0.20,VWS V14.01,2013-04-04 12:41:00,
2013-04-04 05:46:00,52.0,49.5,29.99,ESE,116,0.0,4.0,91,0.11,,---,0.20,VWS V14.01,2013-04-04 12:46:00,
2013-04-04 05:51:00,51.8,49.3,29.98,ESE,115,0.0,5.0,91,0.11,,---,0.20,VWS V14.01,2013-04-04 12:51:00,
2013-04-04 05:56:00,51.7,48.9,30.00,ESE,116,0.0,5.0,90,0.12,,---,0.21,VWS V14.01,2013-04-04 12:56:00,
2013-04-04 06:01:00,51.5,48.7,30.00,ESE,116,2.0,3.0,90,0.06,,---,0.21,VWS V14.01,2013-04-04 13:01:00,
2013-04-04 06:07:00,51.2,48.7,30.00,ESE,116,1.0,3.0,91,0.06,,---,0.21,VWS V14.01,2013-04-04 13:07:00,
2013-04-04 06:12:00,51.2,48.7,30.01,ESE,116,0.0,3.0,91,0.06,,---,0.21,VWS V14.01,2013-04-04 13:12:00,
2013-04-04 06:17:00,51.1,48.6,30.01,ESE,116,1.0,3.0,91,0.06,,---,0.21,VWS V14.01,2013-04-04 13:17:00,
2013-04-04 06:22:00,51.4,48.9,30.00,ESE,116,2.0,4.0,91,0.06,,---,0.21,VWS V14.01,2013-04-04 13:22:00,
2013-04-04 06:27:00,51.3,48.8,30.00,ESE,115,1.0,4.0,91,0.06,,---,0.21,VWS V14.01,2013-04-04 13:27:00,
2013-04-04 06:32:00,51.1,48.6,30.00,ESE,116,2.0,3.0,91,0.02,,---,0.21,VWS V14.01,2013-04-04 13:32:00,
2013-04-04 06:37:00,51.0,48.5,30.00,ESE,115,1.0,4.0,91,0.03,,---,0.22,VWS V14.01,2013-04-04 13:37:00,
2013-04-04 06:42:00,51.1,48.6,30.01,ESE,115,3.0,5.0,91,0.03,,---,0.22,VWS V14.01,2013-04-04 13:42:00,
2013-04-04 06:47:00,51.0,48.5,30.02,ESE,116,4.0,5.0,91,0.03,,---,0.22,VWS V14.01,2013-04-04 13:47:00,
2013-04-04 06:52:00,50.9,48.4,30.01,ESE,115,2.0,5.0,91,0.03,,---,0.22,VWS V14.01,2013-04-04 13:52:00,
2013-04-04 06:57:00,50.9,48.4,30.00,ESE,115,0.0,5.0,91,0.03,,---,0.22,VWS V14.01,2013-04-04 13:57:00,
2013-04-04 07:03:00,51.0,48.5,30.01,ESE,116,0.0,4.0,91,0.01,,---,0.22,VWS V14.01,2013-04-04 14:03:00,
2013-04-04 07:08:00,50.9,48.4,30.02,ESE,115,0.0,4.0,91,0.01,,---,0.22,VWS V14.01,2013-04-04 14:08:00,
2013-04-04 07:13:00,51.1,48.6,30.03,ESE,116,0.0,4.0,91,0.01,,---,0.22,VWS V14.01,2013-04-04 14:13:00,
2013-04-04 07:18:00,51.1,48.6,30.03,ESE,115,1.0,4.0,91,0.01,,---,0.22,VWS V14.01,2013-04-04 14:18:00,
2013-04-04 07:23:00,51.2,49.0,30.04,ESE,115,0.0,4.0,92,0.01,,---,0.22,VWS V14.01,2013-04-04 14:23:00,
2013-04-04 07:28:00,51.4,49.2,30.04,ESE,115,0.0,4.0,92,0.01,,---,0.22,VWS V14.01,2013-04-04 14:28:00,
2013-04-04 07:33:00,51.5,49.3,30.05,ESE,115,0.0,2.0,92,0.01,,---,0.22,VWS V14.01,2013-04-04 14:33:00,
2013-04-04 07:38:00,51.6,49.4,30.05,ESE,115,2.0,2.0,92,0.01,,---,0.22,VWS V14.01,2013-04-04 14:38:00,
2013-04-04 07:43:00,51.6,49.4,30.03,ESE,115,0.0,3.0,92,0.01,,---,0.22,VWS V14.01,2013-04-04 14:43:00,
2013-04-04 07:48:00,51.7,49.5,30.04,ESE,115,1.0,3.0,92,0.01,,---,0.22,VWS V14.01,2013-04-04 14:48:00,
2013-04-04 07:54:00,51.8,49.5,30.04,ESE,115,0.0,5.0,92,0.01,,---,0.22,VWS V14.01,2013-04-04 14:54:00,
2013-04-04 07:59:00,52.0,49.8,30.04,ESE,116,0.0,5.0,92,0.01,,---,0.22,VWS V14.01,2013-04-04 14:59:00,
2013-04-04 08:04:00,52.1,49.8,30.04,ESE,115,0.0,2.0,92,0.00,,---,0.22,VWS V14.01,2013-04-04 15:04:00,
2013-04-04 08:09:00,52.3,50.3,30.05,ESE,116,0.0,2.0,93,0.00,,---,0.22,VWS V14.01,2013-04-04 15:09:00,
2013-04-04 08:14:00,52.4,50.4,30.06,ESE,116,0.0,2.0,93,0.00,,---,0.22,VWS V14.01,2013-04-04 15:14:00,
2013-04-04 08:19:00,52.4,50.4,30.04,ESE,116,0.0,2.0,93,0.00,,---,0.22,VWS V14.01,2013-04-04 15:19:00,
2013-04-04 08:24:00,52.6,50.6,30.06,ESE,115,0.0,2.0,93,0.00,,---,0.22,VWS V14.01,2013-04-04 15:24:00,
2013-04-04 08:29:00,52.7,50.7,30.03,ESE,115,0.0,4.0,93,0.01,,---,0.23,VWS V14.01,2013-04-04 15:29:00,
2013-04-04 08:34:00,52.8,51.1,30.05,ESE,116,1.0,3.0,94,0.01,,---,0.23,VWS V14.01,2013-04-04 15:34:00,
2013-04-04 08:40:00,52.9,51.2,30.05,ESE,116,0.0,3.0,94,0.01,,---,0.23,VWS V14.01,2013-04-04 15:40:00,
2013-04-04 08:45:00,53.0,51.0,30.07,ESE,115,2.0,3.0,93,0.01,,---,0.23,VWS V14.01,2013-04-04 15:45:00,
2013-04-04 08:50:00,53.4,51.7,30.04,ESE,115,2.0,3.0,94,0.02,,---,0.24,VWS V14.01,2013-04-04 15:50:00,
2013-04-04 08:55:00,53.5,51.8,30.06,ESE,115,0.0,3.0,94,0.02,,---,0.24,VWS V14.01,2013-04-04 15:55:00,
2013-04-04 09:00:00,53.6,51.9,30.08,ESE,115,0.0,2.0,94,0.02,,---,0.24,VWS V14.01,2013-04-04 16:00:00,
2013-04-04 09:05:00,53.7,52.0,30.05,ESE,115,0.0,2.0,94,0.02,,---,0.24,VWS V14.01,2013-04-04 16:05:00,
2013-04-04 09:10:00,53.8,52.1,30.07,ESE,116,2.0,4.0,94,0.02,,---,0.24,VWS V14.01,2013-04-04 16:10:00,
2013-04-04 09:15:00,54.0,52.3,30.06,ESE,115,1.0,4.0,94,0.02,,---,0.24,VWS V14.01,2013-04-04 16:15:00,
2013-04-04 09:20:00,54.0,52.3,30.06,ESE,116,0.0,4.0,94,0.03,,---,0.25,VWS V14.01,2013-04-04 16:20:00,
2013-04-04 09:25:00,54.1,52.4,30.07,ESE,115,0.0,4.0,94,0.03,,---,0.25,VWS V14.01,2013-04-04 16:25:00,
2013-04-04 09:30:00,54.2,52.5,30.09,ESE,115,0.0,1.0,94,0.02,,---,0.25,VWS V14.01,2013-04-04 16:30:00,
2013-04-04 09:35:00,54.2,52.5,30.06,ESE,115,0.0,2.0,94,0.02,,---,0.25,VWS V14.01,2013-04-04 16:35:00,
2013-04-04 09:40:00,54.4,52.7,30.05,ESE,116,0.0,2.0,94,0.03,,---,0.26,VWS V14.01,2013-04-04 16:40:00,
2013-04-04 09:45:00,54.6,52.9,30.07,ESE,115,0.0,2.0,94,0.03,,---,0.26,VWS V14.01,2013-04-04 16:45:00,
2013-04-04 09:50:00,54.6,52.9,30.07,ESE,115,0.0,3.0,94,0.03,,---,0.26,VWS V14.01,2013-04-04 16:50:00,
2013-04-04 09:56:00,54.8,53.1,30.09,ESE,116,0.0,3.0,94,0.03,,---,0.26,VWS V14.01,2013-04-04 16:56:00,
2013-04-04 10:01:00,54.9,53.2,30.07,ESE,115,0.0,1.0,94,0.02,,---,0.26,VWS V14.01,2013-04-04 17:01:00,
2013-04-04 10:06:00,55.2,53.5,30.07,ESE,115,0.0,3.0,94,0.02,,---,0.26,VWS V14.01,2013-04-04 17:06:00,
2013-04-04 10:11:00,55.3,53.9,30.10,ESE,116,2.0,3.0,95,0.02,,---,0.26,VWS V14.01,2013-04-04 17:11:00,
2013-04-04 10:16:00,55.5,53.8,30.08,ESE,115,0.0,3.0,94,0.02,,---,0.26,VWS V14.01,2013-04-04 17:16:00,
2013-04-04 10:21:00,55.5,54.1,30.10,ESE,115,0.0,3.0,95,0.03,,---,0.27,VWS V14.01,2013-04-04 17:21:00,
2013-04-04 10:27:00,55.7,54.3,30.07,ESE,115,1.0,3.0,95,0.03,,---,0.27,VWS V14.01,2013-04-04 17:27:00,
2013-04-04 10:32:00,55.8,54.1,30.06,ESE,116,0.0,1.0,94,0.02,,---,0.27,VWS V14.01,2013-04-04 17:32:00,
2013-04-04 10:37:00,56.0,54.3,30.08,ESE,115,1.0,3.0,94,0.02,,---,0.27,VWS V14.01,2013-04-04 17:37:00,
2013-04-04 10:42:00,56.0,54.6,30.08,ESE,115,1.0,3.0,95,0.03,,---,0.28,VWS V14.01,2013-04-04 17:42:00,
2013-04-04 10:47:00,56.1,54.7,30.08,ESE,115,2.0,3.0,95,0.03,,---,0.28,VWS V14.01,2013-04-04 17:47:00,
2013-04-04 10:52:00,56.2,54.5,30.07,ESE,116,0.0,3.0,94,0.03,,---,0.28,VWS V14.01,2013-04-04 17:52:00,
2013-04-04 10:57:00,56.3,54.6,30.08,ESE,115,1.0,4.0,94,0.03,,---,0.28,VWS V14.01,2013-04-04 17:57:00,
2013-04-04 11:03:00,56.4,54.7,30.09,ESE,116,0.0,2.0,94,0.02,,---,0.28,VWS V14.01,2013-04-04 18:03:00,
2013-04-04 11:08:00,56.6,54.9,30.10,ESE,115,0.0,3.0,94,0.02,,---,0.28,VWS V14.01,2013-04-04 18:08:00,
2013-04-04 11:13:00,56.7,55.0,30.11,ESE,115,2.0,3.0,94,0.02,,---,0.28,VWS V14.01,2013-04-04 18:13:00,
2013-04-04 11:18:00,56.9,55.2,30.09,ESE,121,1.0,5.0,94,0.02,,---,0.28,VWS V14.01,2013-04-04 18:18:00,
2013-04-04 11:23:00,57.0,55.3,30.07,West,266,3.0,9.0,94,0.02,,---,0.28,VWS V14.01,2013-04-04 18:23:00,
2013-04-04 11:28:00,56.9,55.2,30.09,West,263,3.0,9.0,94,0.02,,---,0.28,VWS V14.01,2013-04-04 18:28:00,
2013-04-04 11:33:00,57.0,55.3,30.08,WSW,245,2.0,6.0,94,0.01,,---,0.28,VWS V14.01,2013-04-04 18:33:00,
2013-04-04 11:38:00,57.2,55.5,30.10,WSW,238,2.0,6.0,94,0.01,,---,0.28,VWS V14.01,2013-04-04 18:38:00,
2013-04-04 11:43:00,57.2,55.2,30.08,WSW,237,3.0,6.0,93,0.01,,---,0.28,VWS V14.01,2013-04-04 18:43:00,
2013-04-04 11:49:00,57.5,55.8,30.08,WSW,237,2.0,6.0,94,0.01,,---,0.28,VWS V14.01,2013-04-04 18:49:00,
2013-04-04 11:54:00,58.0,56.3,30.10,WSW,237,3.0,6.0,94,0.01,,---,0.28,VWS V14.01,2013-04-04 18:54:00,
2013-04-04 11:59:00,58.5,57.1,30.06,WSW,237,2.0,6.0,95,0.01,,---,0.28,VWS V14.01,2013-04-04 18:59:00,
2013-04-04 12:04:00,58.9,57.2,30.07,WSW,237,3.0,4.0,94,0.00,,---,0.28,VWS V14.01,2013-04-04 19:04:00,
2013-04-04 12:10:00,59.3,57.6,30.08,SW,226,3.0,8.0,94,0.00,,---,0.28,VWS V14.01,2013-04-04 19:10:00,
2013-04-04 12:15:00,59.4,56.8,30.08,SSW,194,2.0,10.0,91,0.00,,---,0.28,VWS V14.01,2013-04-04 19:15:00,
2013-04-04 12:20:00,59.7,56.8,30.07,SW,220,4.0,10.0,90,0.00,,---,0.28,VWS V14.01,2013-04-04 19:20:00,
2013-04-04 12:25:00,60.1,56.5,30.07,WNW,302,4.0,10.0,88,0.00,,---,0.28,VWS V14.01,2013-04-04 19:25:00,
2013-04-04 12:30:00,60.8,57.5,30.08,SW,216,7.0,7.0,89,0.00,,---,0.28,VWS V14.01,2013-04-04 19:30:00,
2013-04-04 12:35:00,61.4,56.9,30.09,South,185,4.0,11.0,85,0.00,,---,0.28,VWS V14.01,2013-04-04 19:35:00,
2013-04-04 12:40:00,61.8,56.2,30.08,SW,233,4.0,12.0,82,0.00,,---,0.28,VWS V14.01,2013-04-04 19:40:00,
2013-04-04 12:45:00,61.7,55.1,30.09,SW,224,9.0,12.0,79,0.00,,---,0.28,VWS V14.01,2013-04-04 19:45:00,
2013-04-04 12:50:00,61.8,56.2,30.07,SW,230,1.0,12.0,82,0.00,,---,0.28,VWS V14.01,2013-04-04 19:50:00,
2013-04-04 12:55:00,62.2,55.6,30.07,South,189,4.0,12.0,79,0.00,,---,0.28,VWS V14.01,2013-04-04 19:55:00,
2013-04-04 13:00:00,62.2,55.3,30.08,SW,219,5.0,7.0,78,0.00,,---,0.28,VWS V14.01,2013-04-04 20:00:00,
2013-04-04 13:05:00,62.2,55.3,30.06,SSW,196,2.0,9.0,78,0.00,,---,0.28,VWS V14.01,2013-04-04 20:05:00,
2013-04-04 13:10:00,62.1,55.5,30.06,SW,216,4.0,9.0,79,0.00,,---,0.28,VWS V14.01,2013-04-04 20:10:00,
2013-04-04 13:15:00,61.9,54.6,30.08,SW,229,3.0,9.0,77,0.00,,---,0.28,VWS V14.01,2013-04-04 20:15:00,
2013-04-04 13:21:00,62.1,55.5,30.06,SSW,194,4.0,9.0,79,0.00,,---,0.28,VWS V14.01,2013-04-04 20:21:00,
2013-04-04 13:26:00,62.4,55.8,30.06,SW,221,2.0,9.0,79,0.00,,---,0.28,VWS V14.01,2013-04-04 20:26:00,
2013-04-04 13:31:00,62.6,55.7,30.07,SW,218,3.0,6.0,78,0.00,,---,0.28,VWS V14.01,2013-04-04 20:31:00,
2013-04-04 13:36:00,62.6,54.9,30.08,SW,223,2.0,8.0,76,0.00,,---,0.28,VWS V14.01,2013-04-04 20:36:00,
2013-04-04 13:41:00,62.6,55.3,30.06,SSW,213,5.0,8.0,77,0.00,,---,0.28,VWS V14.01,2013-04-04 20:41:00,
2013-04-04 13:46:00,62.2,54.9,30.06,SSW,192,1.0,8.0,77,0.00,,---,0.28,VWS V14.01,2013-04-04 20:46:00,
2013-04-04 13:51:00,62.2,55.6,30.07,South,191,2.0,8.0,79,0.00,,---,0.28,VWS V14.01,2013-04-04 20:51:00,
2013-04-04 13:57:00,62.4,56.2,30.08,South,190,4.0,8.0,80,0.00,,---,0.28,VWS V14.01,2013-04-04 20:57:00,
2013-04-04 14:02:00,62.5,55.9,30.06,SSW,197,0.0,4.0,79,0.00,,---,0.28,VWS V14.01,2013-04-04 21:02:00,
2013-04-04 14:07:00,62.7,56.5,30.06,SW,222,2.0,6.0,80,0.00,,---,0.28,VWS V14.01,2013-04-04 21:07:00,
2013-04-04 14:12:00,63.1,55.4,30.07,SW,217,4.0,7.0,76,0.00,,---,0.28,VWS V14.01,2013-04-04 21:12:00,
2013-04-04 14:17:00,63.0,54.6,30.09,SW,228,3.0,9.0,74,0.00,,---,0.28,VWS V14.01,2013-04-04 21:17:00,
2013-04-04 14:22:00,63.2,54.8,30.05,WSW,240,1.0,9.0,74,0.00,,---,0.28,VWS V14.01,2013-04-04 21:22:00,
2013-04-04 14:27:00,63.1,55.1,30.05,SW,220,5.0,9.0,75,0.00,,---,0.28,VWS V14.01,2013-04-04 21:27:00,
2013-04-04 14:32:00,63.0,55.0,30.10,SSW,196,2.0,5.0,75,0.00,,---,0.28,VWS V14.01,2013-04-04 21:32:00,
2013-04-04 14:37:00,63.2,55.5,30.09,SSW,196,3.0,5.0,76,0.00,,---,0.28,VWS V14.01,2013-04-04 21:37:00,
2013-04-04 14:42:00,63.2,54.4,30.08,SSW,196,2.0,5.0,73,0.00,,---,0.28,VWS V14.01,2013-04-04 21:42:00,
2013-04-04 14:47:00,63.4,55.0,30.05,SW,219,4.0,6.0,74,0.00,,---,0.28,VWS V14.01,2013-04-04 21:47:00,
2013-04-04 14:52:00,63.8,54.6,30.08,SSW,201,9.0,9.0,72,0.00,,---,0.28,VWS V14.01,2013-04-04 21:52:00,
2013-04-04 14:57:00,64.0,54.8,30.06,SW,233,3.0,9.0,72,0.00,,---,0.28,VWS V14.01,2013-04-04 21:57:00,
2013-04-04 15:02:00,64.3,54.7,30.04,SW,232,4.0,5.0,71,0.00,,---,0.28,VWS V14.01,2013-04-04 22:02:00,
2013-04-04 15:07:00,63.9,53.9,30.07,SW,232,2.0,6.0,70,0.00,,---,0.28,VWS V14.01,2013-04-04 22:07:00,
2013-04-04 15:12:00,63.7,53.7,30.05,SW,231,1.0,7.0,70,0.00,,---,0.28,VWS V14.01,2013-04-04 22:12:00,
2013-04-04 15:17:00,63.9,54.7,30.07,SW,222,5.0,8.0,72,0.00,,---,0.28,VWS V14.01,2013-04-04 22:17:00,
2013-04-04 15:23:00,63.6,54.0,30.06,West,270,3.0,8.0,71,0.00,,---,0.28,VWS V14.01,2013-04-04 22:23:00,
2013-04-04 15:28:00,63.7,54.9,30.05,West,262,7.0,8.0,73,0.00,,---,0.28,VWS V14.01,2013-04-04 22:28:00,
2013-04-04 15:33:00,63.6,53.7,30.07,WNW,302,1.0,7.0,70,0.00,,---,0.28,VWS V14.01,2013-04-04 22:33:00,
2013-04-04 15:38:00,63.6,53.7,30.08,WNW,300,2.0,7.0,70,0.00,,---,0.28,VWS V14.01,2013-04-04 22:38:00,
2013-04-04 15:43:00,64.0,54.4,30.07,SW,233,5.0,7.0,71,0.00,,---,0.28,VWS V14.01,2013-04-04 22:43:00,
2013-04-04 15:48:00,64.0,54.4,30.08,WSW,237,3.0,7.0,71,0.00,,---,0.28,VWS V14.01,2013-04-04 22:48:00,
2013-04-04 15:53:00,63.8,53.8,30.05,WSW,248,9.0,9.0,70,0.00,,---,0.28,VWS V14.01,2013-04-04 22:53:00,
2013-04-04 15:58:00,63.3,54.1,30.07,WSW,245,6.0,9.0,72,0.00,,---,0.28,VWS V14.01,2013-04-04 22:58:00,
2013-04-04 16:03:00,63.2,54.4,30.06,WNW,284,2.0,7.0,73,0.00,,---,0.28,VWS V14.01,2013-04-04 23:03:00,
2013-04-04 16:08:00,62.8,54.4,30.08,WNW,302,5.0,7.0,74,0.00,,---,0.28,VWS V14.01,2013-04-04 23:08:00,
2013-04-04 16:13:00,62.7,54.3,30.08,SW,231,6.0,9.0,74,0.00,,---,0.28,VWS V14.01,2013-04-04 23:13:00,
2013-04-04 16:18:00,62.8,53.7,30.06,SW,234,5.0,10.0,72,0.00,,---,0.28,VWS V14.01,2013-04-04 23:18:00,
2013-04-04 16:24:00,62.7,53.9,30.09,West,267,5.0,10.0,73,0.00,,---,0.28,VWS V14.01,2013-04-04 23:24:00,
2013-04-04 16:29:00,62.7,54.3,30.07,WNW,286,1.0,10.0,74,0.00,,---,0.28,VWS V14.01,2013-04-04 23:29:00,
2013-04-04 16:34:00,62.9,54.1,30.05,WSW,252,6.0,11.0,73,0.00,,---,0.28,VWS V14.01,2013-04-04 23:34:00,
2013-04-04 16:39:00,63.2,55.2,30.06,SW,225,5.0,11.0,75,0.00,,---,0.28,VWS V14.01,2013-04-04 23:39:00,
2013-04-04 16:44:00,63.9,55.8,30.08,SW,214,2.0,11.0,75,0.00,,---,0.28,VWS V14.01,2013-04-04 23:44:00,
2013-04-04 16:49:00,64.7,54.7,30.08,WNW,286,1.0,11.0,70,0.00,,---,0.28,VWS V14.01,2013-04-04 23:49:00,
2013-04-04 16:54:00,65.6,55.6,30.08,SW,219,6.0,11.0,70,0.00,,---,0.28,VWS V14.01,2013-04-04 23:54:00,
2013-04-04 16:59:00,65.9,55.8,30.07,WSW,258,2.0,11.0,70,0.00,,---,0.28,VWS V14.01,2013-04-04 23:59:00,
2013-04-04 17:05:00,65.9,55.0,30.07,West,281,5.0,9.0,68,0.00,,---,0.28,VWS V14.01,2013-04-05 00:05:00,
2013-04-04 17:10:00,66.1,55.7,30.06,WNW,284,2.0,9.0,69,0.00,,---,0.28,VWS V14.01,2013-04-05 00:10:00,
2013-04-04 17:15:00,65.4,54.2,30.06,WNW,288,5.0,9.0,67,0.00,,---,0.28,VWS V14.01,2013-04-05 00:15:00,
2013-04-04 17:20:00,64.8,54.0,30.07,WNW,300,4.0,9.0,68,0.00,,---,0.28,VWS V14.01,2013-04-05 00:20:00,
2013-04-04 17:25:00,64.4,54.4,30.06,WSW,256,4.0,9.0,70,0.00,,---,0.28,VWS V14.01,2013-04-05 00:25:00,
2013-04-04 17:30:00,64.5,54.5,30.06,SW,216,7.0,7.0,70,0.00,,---,0.28,VWS V14.01,2013-04-05 00:30:00,
2013-04-04 17:35:00,64.5,54.9,30.05,NW,305,3.0,8.0,71,0.00,,---,0.28,VWS V14.01,2013-04-05 00:35:00,
2013-04-04 17:40:00,64.6,55.0,30.06,SSW,195,2.0,8.0,71,0.00,,---,0.28,VWS V14.01,2013-04-05 00:40:00,
2013-04-04 17:45:00,64.8,54.0,30.07,West,271,3.0,8.0,68,0.00,,---,0.28,VWS V14.01,2013-04-05 00:45:00,
2013-04-04 17:50:00,64.7,53.9,30.08,WNW,293,4.0,9.0,68,0.00,,---,0.28,VWS V14.01,2013-04-05 00:50:00,
2013-04-04 17:56:00,64.6,54.6,30.07,SW,230,4.0,9.0,70,0.00,,---,0.28,VWS V14.01,2013-04-05 00:56:00,
2013-04-04 18:01:00,64.3,53.9,30.07,SSW,210,2.0,6.0,69,0.00,,---,0.28,VWS V14.01,2013-04-05 01:01:00,
2013-04-04 18:06:00,64.3,53.9,30.06,West,265,2.0,8.0,69,0.00,,---,0.28,VWS V14.01,2013-04-05 01:06:00,
2013-04-04 18:11:00,64.0,53.2,30.06,WSW,253,3.0,9.0,68,0.00,,---,0.28,VWS V14.01,2013-04-05 01:11:00,
2013-04-04 18:16:00,63.1,52.8,30.04,SW,217,5.0,10.0,69,0.00,,---,0.28,VWS V14.01,2013-04-05 01:16:00,
2013-04-04 18:21:00,62.6,52.7,30.07,SW,220,2.0,10.0,70,0.00,,---,0.28,VWS V14.01,2013-04-05 01:21:00,
2013-04-04 18:26:00,62.3,53.2,30.05,SW,222,2.0,10.0,72,0.00,,---,0.28,VWS V14.01,2013-04-05 01:26:00,
2013-04-04 18:31:00,62.4,53.3,30.10,SW,225,0.0,5.0,72,0.00,,---,0.28,VWS V14.01,2013-04-05 01:31:00,
2013-04-04 18:36:00,62.3,52.4,30.07,WSW,241,4.0,7.0,70,0.00,,---,0.28,VWS V14.01,2013-04-05 01:36:00,
2013-04-04 18:41:00,61.6,52.1,30.04,WSW,248,2.0,7.0,71,0.00,,---,0.28,VWS V14.01,2013-04-05 01:41:00,
2013-04-04 18:46:00,61.1,52.0,30.04,WSW,252,1.0,7.0,72,0.00,,---,0.28,VWS V14.01,2013-04-05 01:46:00,
2013-04-04 18:51:00,60.8,52.1,30.09,WNW,282,2.0,7.0,73,0.00,,---,0.28,VWS V14.01,2013-04-05 01:51:00,
2013-04-04 18:56:00,60.4,51.7,30.07,West,270,1.0,7.0,73,0.00,,---,0.28,VWS V14.01,2013-04-05 01:56:00,
2013-04-04 19:01:00,60.0,51.7,30.07,West,259,3.0,4.0,74,0.00,,---,0.28,VWS V14.01,2013-04-05 02:01:00,
2013-04-04 19:06:00,59.5,51.6,30.09,WNW,303,2.0,5.0,75,0.00,,---,0.28,VWS V14.01,2013-04-05 02:06:00,
2013-04-04 19:12:00,59.1,51.5,30.07,SW,229,3.0,7.0,76,0.00,,---,0.28,VWS V14.01,2013-04-05 02:12:00,
2013-04-04 19:17:00,58.6,51.4,30.08,SW,225,3.0,7.0,77,0.00,,---,0.28,VWS V14.01,2013-04-05 02:17:00,
2013-04-04 19:22:00,58.3,51.1,30.07,WNW,284,2.0,7.0,77,0.00,,---,0.28,VWS V14.01,2013-04-05 02:22:00,
2013-04-04 19:27:00,58.2,51.0,30.08,WNW,291,2.0,7.0,77,0.00,,---,0.28,VWS V14.01,2013-04-05 02:27:00,
2013-04-04 19:32:00,57.9,51.1,30.07,WNW,286,0.0,6.0,78,0.00,,---,0.28,VWS V14.01,2013-04-05 02:32:00,
2013-04-04 19:37:00,57.8,51.3,30.10,WSW,256,2.0,6.0,79,0.00,,---,0.28,VWS V14.01,2013-04-05 02:37:00,
2013-04-04 19:42:00,57.6,50.8,30.08,West,261,2.0,6.0,78,0.00,,---,0.28,VWS V14.01,2013-04-05 02:42:00,
2013-04-04 19:47:00,57.5,51.0,30.09,WNW,288,3.0,6.0,79,0.00,,---,0.28,VWS V14.01,2013-04-05 02:47:00,
2013-04-04 19:52:00,57.6,51.1,30.10,SW,220,3.0,8.0,79,0.00,,---,0.28,VWS V14.01,2013-04-05 02:52:00,
2013-04-04 19:57:00,57.4,51.0,30.10,SW,221,0.0,8.0,79,0.00,,---,0.28,VWS V14.01,2013-04-05 02:57:00,
2013-04-04 20:02:00,57.4,51.3,30.09,NW,305,2.0,8.0,80,0.00,,---,0.28,VWS V14.01,2013-04-05 03:02:00,
2013-04-04 20:07:00,57.2,51.1,30.07,West,280,2.0,8.0,80,0.00,,---,0.28,VWS V14.01,2013-04-05 03:07:00,
2013-04-04 20:12:00,57.3,51.2,30.05,West,279,2.0,8.0,80,0.00,,---,0.28,VWS V14.01,2013-04-05 03:12:00,
2013-04-04 20:17:00,57.1,51.0,30.08,SW,226,5.0,8.0,80,0.00,,---,0.28,VWS V14.01,2013-04-05 03:17:00,
2013-04-04 20:22:00,57.1,51.0,30.07,WNW,289,3.0,8.0,80,0.00,,---,0.28,VWS V14.01,2013-04-05 03:22:00,
2013-04-04 20:27:00,57.2,51.4,30.12,WSW,253,7.0,8.0,81,0.00,,---,0.28,VWS V14.01,2013-04-05 03:27:00,
2013-04-04 20:32:00,57.0,50.9,30.08,West,261,2.0,7.0,80,0.00,,---,0.28,VWS V14.01,2013-04-05 03:32:00,
2013-04-04 20:37:00,57.0,50.9,30.06,SW,217,3.0,9.0,80,0.00,,---,0.28,VWS V14.01,2013-04-05 03:37:00,
2013-04-04 20:42:00,56.8,51.0,30.10,SW,227,3.0,9.0,81,0.00,,---,0.28,VWS V14.01,2013-04-05 03:42:00,
2013-04-04 20:47:00,56.8,50.7,30.09,SW,229,2.0,9.0,80,0.00,,---,0.28,VWS V14.01,2013-04-05 03:47:00,
2013-04-04 20:52:00,56.8,50.7,30.09,SW,231,4.0,9.0,80,0.00,,---,0.28,VWS V14.01,2013-04-05 03:52:00,
2013-04-04 20:58:00,56.8,50.7,30.11,SW,230,1.0,9.0,80,0.00,,---,0.28,VWS V14.01,2013-04-05 03:58:00,
2013-04-04 21:00:00,56.9,50.8,30.08,SW,231,2.0,3.0,80,0.00,,---,0.28,VWS V14.01,2013-04-05 04:00:00,
2013-04-04 21:01:00,56.9,51.1,30.09,SW,231,3.0,3.0,81,0.00,,---,0.28,VWS V14.01,2013-04-05 04:01:00,
2013-04-04 21:02:00,56.8,50.7,30.08,SW,231,3.0,5.0,80,0.00,,---,0.28,VWS V14.01,2013-04-05 04:02:00,
2013-04-04 21:07:00,56.8,51.0,30.09,SW,231,4.0,7.0,81,0.00,,---,0.28,VWS V14.01,2013-04-05 04:07:00,
2013-04-04 21:12:00,56.8,51.0,30.10,West,269,1.0,7.0,81,0.00,,---,0.28,VWS V14.01,2013-04-05 04:12:00,
2013-04-04 21:17:00,56.7,50.9,30.11,West,281,4.0,8.0,81,0.00,,---,0.28,VWS V14.01,2013-04-05 04:17:00,
2013-04-04 21:22:00,56.7,50.9,30.10,SW,222,2.0,8.0,81,0.00,,---,0.28,VWS V14.01,2013-04-05 04:22:00,
2013-04-04 21:27:00,56.7,50.9,30.11,SW,223,4.0,9.0,81,0.00,,---,0.28,VWS V14.01,2013-04-05 04:27:00,
2013-04-04 21:32:00,56.8,51.4,30.08,NNW,345,2.0,6.0,82,0.00,,---,0.28,VWS V14.01,2013-04-05 04:32:00,
2013-04-04 21:38:00,56.5,50.8,30.12,WSW,243,2.0,7.0,81,0.00,,---,0.28,VWS V14.01,2013-04-05 04:38:00,
2013-04-04 21:43:00,56.5,51.1,30.08,WNW,298,3.0,7.0,82,0.00,,---,0.28,VWS V14.01,2013-04-05 04:43:00,
2013-04-04 21:48:00,56.5,51.1,30.10,SW,227,0.0,7.0,82,0.00,,---,0.28,VWS V14.01,2013-04-05 04:48:00,
2013-04-04 21:53:00,56.2,51.1,30.11,West,263,1.0,7.0,83,0.00,,---,0.28,VWS V14.01,2013-04-05 04:53:00,
2013-04-04 21:58:00,56.2,51.1,30.11,West,276,1.0,7.0,83,0.00,,---,0.28,VWS V14.01,2013-04-05 04:58:00,
2013-04-04 22:03:00,56.1,51.0,30.09,WSW,244,2.0,4.0,83,0.00,,---,0.28,VWS V14.01,2013-04-05 05:03:00,
2013-04-04 22:08:00,56.1,51.0,30.11,WSW,242,3.0,5.0,83,0.00,,---,0.28,VWS V14.01,2013-04-05 05:08:00,
2013-04-04 22:13:00,56.0,51.2,30.11,SW,236,4.0,7.0,84,0.00,,---,0.28,VWS V14.01,2013-04-05 05:13:00,
2013-04-04 22:19:00,56.0,51.2,30.13,WSW,244,2.0,7.0,84,0.00,,---,0.28,VWS V14.01,2013-04-05 05:19:00,
2013-04-04 22:24:00,56.0,50.9,30.10,SW,222,3.0,7.0,83,0.00,,---,0.28,VWS V14.01,2013-04-05 05:24:00,
2013-04-04 22:29:00,55.9,51.1,30.11,SW,223,3.0,7.0,84,0.00,,---,0.28,VWS V14.01,2013-04-05 05:29:00,
2013-04-04 22:34:00,55.8,51.0,30.09,WNW,282,2.0,7.0,84,0.00,,---,0.28,VWS V14.01,2013-04-05 05:34:00,
2013-04-04 22:39:00,55.6,50.8,30.12,West,263,3.0,7.0,84,0.00,,---,0.28,VWS V14.01,2013-04-05 05:39:00,
2013-04-04 22:44:00,55.6,50.5,30.12,West,268,1.0,7.0,83,0.00,,---,0.28,VWS V14.01,2013-04-05 05:44:00,
2013-04-04 22:49:00,55.5,50.4,30.11,WSW,244,4.0,9.0,83,0.00,,---,0.28,VWS V14.01,2013-04-05 05:49:00,
2013-04-04 22:55:00,55.4,50.7,30.10,West,275,2.0,9.0,84,0.00,,---,0.28,VWS V14.01,2013-04-05 05:55:00,
2013-04-04 23:00:00,55.4,50.7,30.11,WSW,238,1.0,2.0,84,0.00,,---,0.28,VWS V14.01,2013-04-05 06:00:00,
2013-04-04 23:05:00,55.1,50.4,30.10,WSW,237,3.0,5.0,84,0.00,,---,0.28,VWS V14.01,2013-04-05 06:05:00,
2013-04-04 23:10:00,55.2,50.8,30.10,WSW,248,4.0,5.0,85,0.00,,---,0.28,VWS V14.01,2013-04-05 06:10:00,
2013-04-04 23:15:00,55.2,50.5,30.10,WSW,252,2.0,6.0,84,0.00,,---,0.28,VWS V14.01,2013-04-05 06:15:00,
2013-04-04 23:20:00,55.3,50.6,30.12,WSW,252,2.0,6.0,84,0.00,,---,0.28,VWS V14.01,2013-04-05 06:20:00,
2013-04-04 23:25:00,55.4,50.7,30.11,WSW,252,1.0,6.0,84,0.00,,---,0.28,VWS V14.01,2013-04-05 06:25:00,
2013-04-04 23:30:00,55.4,50.3,30.09,West,259,0.0,2.0,83,0.00,,---,0.28,VWS V14.01,2013-04-05 06:30:00,
2013-04-04 23:35:00,55.3,50.2,30.11,West,259,3.0,4.0,83,0.00,,---,0.28,VWS V14.01,2013-04-05 06:35:00,
2013-04-04 23:40:00,55.3,49.9,30.13,West,259,3.0,4.0,82,0.00,,---,0.28,VWS V14.01,2013-04-05 06:40:00,
2013-04-04 23:45:00,55.3,49.9,30.10,SW,227,5.0,7.0,82,0.00,,---,0.28,VWS V14.01,2013-04-05 06:45:00,
2013-04-04 23:50:00,55.3,49.9,30.10,SW,226,2.0,7.0,82,0.00,,---,0.28,VWS V14.01,2013-04-05 06:50:00,
2013-04-04 23:56:00,55.4,50.0,30.09,SW,224,1.0,7.0,82,0.00,,---,0.28,VWS V14.01,2013-04-05 06:56:00,